createdAt,value
2019-03-09T00:00:59.764Z,100529.86
2019-03-09T00:03:28.968Z,100532.63
2019-03-09T00:05:58.139Z,100543.33
2019-03-09T00:08:27.308Z,100535.01
2019-03-09T00:10:56.511Z,100518.69
2019-03-09T00:13:25.684Z,100516.58
2019-03-09T00:15:54.876Z,100517.55
2019-03-09T00:18:24.034Z,100516.94
2019-03-09T00:20:53.228Z,100519.04
2019-03-09T00:23:27.206Z,100498.02
2019-03-09T00:26:06.823Z,100511.61
2019-03-09T00:28:37.662Z,100510.69
2019-03-09T00:31:10.953Z,100508.69
2019-03-09T00:33:40.131Z,100513.23
2019-03-09T00:36:09.307Z,100507.89
2019-03-09T00:38:38.493Z,100503.41
2019-03-09T00:41:07.688Z,100509.36
2019-03-09T00:43:36.857Z,100506.62
2019-03-09T00:46:06.048Z,100493.42
2019-03-09T00:48:35.235Z,100515.73
2019-03-09T00:51:04.407Z,100499.22
2019-03-09T00:53:33.607Z,100518.02
2019-03-09T00:56:02.771Z,100525.73
2019-03-09T00:58:31.957Z,100519.61
2019-03-09T01:01:01.147Z,100510.81
2019-03-09T01:03:30.325Z,100515.95
2019-03-09T01:05:59.517Z,100519.89
2019-03-09T01:08:28.691Z,100509.73
2019-03-09T01:10:57.878Z,100534.94
2019-03-09T01:13:27.058Z,100537.55
2019-03-09T01:15:56.274Z,100532.41
2019-03-09T01:18:25.486Z,100524.11
2019-03-09T01:20:54.716Z,100521.98
2019-03-09T01:23:23.864Z,100523.19
2019-03-09T01:25:53.063Z,100525.86
2019-03-09T01:28:22.244Z,100526.93
2019-03-09T01:30:51.458Z,100522.93
2019-03-09T01:33:20.700Z,100511.83
2019-03-09T01:35:50.071Z,100519.88
2019-03-09T01:38:19.264Z,100525.16
2019-03-09T01:40:48.437Z,100522.66
2019-03-09T01:43:17.733Z,100513.12
2019-03-09T01:45:46.940Z,100512.57
2019-03-09T01:48:16.123Z,100520.34
2019-03-09T01:50:45.294Z,100512.84
2019-03-09T01:53:14.473Z,100515.28
2019-03-09T01:55:43.675Z,100527.34
2019-03-09T01:58:12.867Z,100524.73
2019-03-09T02:00:42.233Z,100547.41
2019-03-09T02:03:11.411Z,100547.41
2019-03-09T02:05:40.594Z,100535.45
2019-03-09T02:08:09.787Z,100539.52
2019-03-09T02:10:38.983Z,100539.39
2019-03-09T02:13:08.182Z,100544.83
2019-03-09T02:15:37.390Z,100550.17
2019-03-09T02:18:06.592Z,100550.17
2019-03-09T02:20:35.842Z,100532.73
2019-03-09T02:23:05.058Z,100535.89
2019-03-09T02:25:34.253Z,100529.23
2019-03-09T02:28:03.442Z,100529.23
2019-03-09T02:30:32.639Z,100544.39
2019-03-09T02:33:02.501Z,100544.39
2019-03-09T02:35:31.682Z,100547.30
2019-03-09T02:38:02.603Z,100544.34
2019-03-09T02:40:31.785Z,100552.36
2019-03-09T02:43:00.959Z,100561.81
2019-03-09T02:45:31.840Z,100561.81
2019-03-09T02:48:00.999Z,100569.26
2019-03-09T02:50:30.205Z,100571.79
2019-03-09T02:52:59.378Z,100571.79
2019-03-09T02:55:28.570Z,100574.53
2019-03-09T02:57:57.757Z,100594.03
2019-03-09T03:00:28.579Z,100606.23
2019-03-09T03:03:02.059Z,100603.25
2019-03-09T03:05:31.236Z,100591.29
2019-03-09T03:08:00.412Z,100601.75
2019-03-09T03:10:29.611Z,100590.24
2019-03-09T03:12:58.794Z,100603.98
2019-03-09T03:15:31.025Z,100603.98
2019-03-09T03:18:00.561Z,100621.33
2019-03-09T03:20:29.730Z,100621.33
2019-03-09T03:22:58.989Z,100620.47
2019-03-09T03:25:28.250Z,100620.47
2019-03-09T03:27:57.454Z,100610.88
2019-03-09T03:30:26.733Z,100619.69
2019-03-09T03:32:57.537Z,100624.10
2019-03-09T03:35:26.723Z,100651.75
2019-03-09T03:37:55.886Z,100641.74
2019-03-09T03:40:25.083Z,100641.74
2019-03-09T03:42:54.259Z,100627.80
2019-03-09T03:45:29.225Z,100627.80
2019-03-09T03:47:58.534Z,100627.29
2019-03-09T03:50:27.713Z,100624.55
2019-03-09T03:52:56.902Z,100615.84
2019-03-09T03:55:26.267Z,100632.36
2019-03-09T03:57:55.570Z,100632.36
2019-03-09T04:00:24.760Z,100639.42
2019-03-09T04:02:54.887Z,100639.42
2019-03-09T04:05:24.135Z,100627.88
2019-03-09T04:07:53.476Z,100627.56
2019-03-09T04:10:22.762Z,100634.69
2019-03-09T04:12:52.700Z,100634.69
2019-03-09T04:15:21.874Z,100643.98
2019-03-09T04:17:51.069Z,100649.73
2019-03-09T04:20:20.259Z,100649.32
2019-03-09T04:22:49.685Z,100641.64
2019-03-09T04:25:18.808Z,100642.57
2019-03-09T04:27:48.056Z,100639.97
2019-03-09T04:30:17.223Z,100662.69
2019-03-09T04:32:46.408Z,100668.09
2019-03-09T04:35:15.599Z,100662.98
2019-03-09T04:37:44.760Z,100672.11
2019-03-09T04:40:14.894Z,100659.16
2019-03-09T04:42:44.193Z,100659.16
2019-03-09T04:45:14.027Z,100645.66
2019-03-09T04:47:43.189Z,100657.81
2019-03-09T04:50:15.533Z,100657.81
2019-03-09T04:52:44.704Z,100654.59
2019-03-09T04:55:13.951Z,100641.72
2019-03-09T04:57:43.150Z,100652.78
2019-03-09T05:00:15.091Z,100667.20
2019-03-09T05:02:44.283Z,100670.81
2019-03-09T05:05:13.621Z,100675.50
2019-03-09T05:07:48.482Z,100675.23
2019-03-09T05:10:29.593Z,100682.09
2019-03-09T05:13:05.034Z,100694.42
2019-03-09T05:15:34.159Z,100695.77
2019-03-09T05:18:03.344Z,100711.73
2019-03-09T05:20:32.528Z,100735.19
2019-03-09T05:23:01.766Z,100727.70
2019-03-09T05:25:30.874Z,100755.65
2019-03-09T05:28:00.064Z,100755.30
2019-03-09T05:30:42.400Z,100755.30
2019-03-09T05:33:11.772Z,100753.59
2019-03-09T05:35:40.950Z,100742.66
2019-03-09T05:38:10.180Z,100745.87
2019-03-09T05:40:39.378Z,100745.87
2019-03-09T05:43:08.617Z,100742.84
2019-03-09T05:45:37.869Z,100742.66
2019-03-09T05:48:07.028Z,100726.06
2019-03-09T05:50:36.190Z,100739.68
2019-03-09T05:53:11.300Z,100762.27
2019-03-09T05:55:40.482Z,100767.25
2019-03-09T05:58:09.684Z,100761.80
2019-03-09T06:00:40.050Z,100761.80
2019-03-09T06:03:09.233Z,100748.29
2019-03-09T06:05:40.886Z,100748.29
2019-03-09T06:08:10.057Z,100751.98
2019-03-09T06:10:39.266Z,100755.70
2019-03-09T06:13:08.531Z,100753.70
2019-03-09T06:15:37.672Z,100760.39
2019-03-09T06:18:06.939Z,100760.39
2019-03-09T06:20:36.084Z,100784.53
2019-03-09T06:23:05.366Z,100777.12
2019-03-09T06:25:34.538Z,100784.94
2019-03-09T06:28:03.839Z,100784.94
2019-03-09T06:30:33.991Z,100792.66
2019-03-09T06:33:26.239Z,100792.66
2019-03-09T06:36:01.224Z,100798.92
2019-03-09T06:38:42.447Z,100803.86
2019-03-09T06:41:14.678Z,100816.60
2019-03-09T06:43:43.892Z,100816.60
2019-03-09T06:46:30.928Z,100819.39
2019-03-09T06:49:00.115Z,100838.11
2019-03-09T06:51:29.312Z,100815.28
2019-03-09T06:53:58.566Z,100785.87
2019-03-09T06:56:27.742Z,100780.68
2019-03-09T06:58:56.921Z,100801.35
2019-03-09T07:01:26.096Z,100817.23
2019-03-09T07:03:55.297Z,100817.23
2019-03-09T07:06:24.469Z,100792.23
2019-03-09T07:08:53.649Z,100814.97
2019-03-09T07:11:22.858Z,100839.58
2019-03-09T07:13:53.216Z,100839.58
2019-03-09T07:16:22.564Z,100836.05
2019-03-09T07:18:51.743Z,100836.05
2019-03-09T07:21:20.913Z,100849.19
2019-03-09T07:23:50.095Z,100826.27
2019-03-09T07:26:19.268Z,100846.14
2019-03-09T07:28:48.441Z,100846.14
2019-03-09T07:31:17.628Z,100835.16
2019-03-09T07:33:46.796Z,100822.45
2019-03-09T07:36:15.978Z,100822.45
2019-03-09T07:38:45.162Z,100860.30
2019-03-09T07:41:14.330Z,100860.30
2019-03-09T07:43:43.488Z,100854.91
2019-03-09T07:46:12.691Z,100862.50
2019-03-09T07:48:41.806Z,100869.36
2019-03-09T07:51:10.977Z,100869.36
2019-03-09T07:53:40.191Z,100855.38
2019-03-09T07:56:09.384Z,100875.13
2019-03-09T07:58:38.549Z,100863.41
2019-03-09T08:01:07.751Z,100852.30
2019-03-09T08:03:36.929Z,100865.34
2019-03-09T08:06:06.093Z,100865.34
2019-03-09T08:08:53.295Z,100866.79
2019-03-09T08:11:22.475Z,100876.17
2019-03-09T08:14:09.903Z,100871.41
2019-03-09T08:16:39.491Z,100871.41
2019-03-09T08:19:08.680Z,100879.95
2019-03-09T08:21:37.866Z,100879.95
2019-03-09T08:24:07.080Z,100860.55
2019-03-09T08:26:36.165Z,100825.48
2019-03-09T08:29:05.324Z,100821.97
2019-03-09T08:31:34.890Z,100821.97
2019-03-09T08:34:03.983Z,100839.47
2019-03-09T08:36:51.415Z,100837.93
2019-03-09T08:39:20.624Z,100827.36
2019-03-09T08:41:49.810Z,100828.86
2019-03-09T08:44:19.178Z,100859.08
2019-03-09T08:46:48.370Z,100793.14
2019-03-09T08:49:17.554Z,100793.14
2019-03-09T08:51:47.156Z,100811.31
2019-03-09T08:54:16.389Z,100831.79
2019-03-09T08:56:45.556Z,100828.16
2019-03-09T08:59:14.736Z,100840.11
2019-03-09T09:01:43.946Z,100840.11
2019-03-09T09:04:13.111Z,100832.08
2019-03-09T09:06:42.290Z,100853.80
2019-03-09T09:09:11.468Z,100852.56
2019-03-09T09:11:40.640Z,100847.23
2019-03-09T09:14:09.822Z,100835.12
2019-03-09T09:16:39.004Z,100812.95
2019-03-09T09:19:08.184Z,100830.88
2019-03-09T09:21:37.371Z,100824.20
2019-03-09T09:24:06.549Z,100811.84
2019-03-09T09:26:35.739Z,100811.84
2019-03-09T09:29:04.990Z,100822.03
2019-03-09T09:31:34.165Z,100822.03
2019-03-09T09:34:03.272Z,100857.06
2019-03-09T09:36:32.619Z,100857.06
2019-03-09T09:39:01.824Z,100850.81
2019-03-09T09:41:31.009Z,100855.04
2019-03-09T09:44:00.191Z,100853.09
2019-03-09T09:46:29.480Z,100839.50
2019-03-09T09:48:58.719Z,100848.11
2019-03-09T09:51:27.957Z,100839.36
2019-03-09T09:53:57.094Z,100844.96
2019-03-09T09:56:26.274Z,100842.68
2019-03-09T09:58:55.461Z,100837.98
2019-03-09T10:01:24.627Z,100839.45
2019-03-09T10:03:53.812Z,100838.03
2019-03-09T10:06:23.002Z,100838.03
2019-03-09T10:08:52.190Z,100848.94
2019-03-09T10:11:21.374Z,100852.28
2019-03-09T10:13:50.563Z,100849.34
2019-03-09T10:16:19.776Z,100852.84
2019-03-09T10:18:49.052Z,100841.59
2019-03-09T10:21:36.513Z,100839.11
2019-03-09T10:24:23.539Z,100837.23
2019-03-09T10:26:52.920Z,100837.23
2019-03-09T10:29:22.707Z,100828.89
2019-03-09T10:31:51.878Z,100828.89
2019-03-09T10:34:21.065Z,100819.22
2019-03-09T10:36:50.247Z,100798.56
2019-03-09T10:39:19.428Z,100798.56
2019-03-09T10:41:48.653Z,100804.14
2019-03-09T10:44:17.818Z,100784.92
2019-03-09T10:46:47.001Z,100779.01
2019-03-09T10:49:16.191Z,100778.78
2019-03-09T10:51:45.388Z,100794.08
2019-03-09T10:54:14.670Z,100794.08
2019-03-09T10:56:44.422Z,100783.10
2019-03-09T10:59:13.601Z,100786.67
2019-03-09T11:01:42.877Z,100779.25
2019-03-09T11:04:12.049Z,100793.84
2019-03-09T11:06:41.243Z,100793.84
2019-03-09T11:09:11.271Z,100760.43
2019-03-09T11:11:40.453Z,100760.43
2019-03-09T11:14:09.555Z,100776.18
2019-03-09T11:16:38.724Z,100752.25
2019-03-09T11:19:07.920Z,100717.09
2019-03-09T11:21:37.100Z,100717.09
2019-03-09T11:24:06.276Z,100741.61
2019-03-09T11:26:35.479Z,100723.89
2019-03-09T11:29:04.675Z,100718.39
2019-03-09T11:31:33.895Z,100717.58
2019-03-09T11:34:03.084Z,100717.58
2019-03-09T11:36:32.294Z,100718.53
2019-03-09T11:39:01.476Z,100696.41
2019-03-09T11:41:30.659Z,100688.18
2019-03-09T11:43:59.881Z,100688.41
2019-03-09T11:46:29.054Z,100688.41
2019-03-09T11:48:58.264Z,100659.27
2019-03-09T11:51:27.436Z,100660.82
2019-03-09T11:53:56.628Z,100660.82
2019-03-09T11:56:25.826Z,100659.77
2019-03-09T11:58:55.087Z,100644.43
2019-03-09T12:01:24.275Z,100642.58
2019-03-09T12:03:53.466Z,100642.58
2019-03-09T12:06:22.822Z,100638.85
2019-03-09T12:08:52.004Z,100649.05
2019-03-09T12:11:21.208Z,100618.30
2019-03-09T12:13:50.400Z,100643.33
2019-03-09T12:16:19.582Z,100643.33
2019-03-09T12:18:48.765Z,100649.87
2019-03-09T12:21:17.945Z,100649.87
2019-03-09T12:23:47.167Z,100644.27
2019-03-09T12:26:16.345Z,100650.28
2019-03-09T12:28:45.527Z,100625.54
2019-03-09T12:31:14.697Z,100639.22
2019-03-09T12:33:43.933Z,100631.75
2019-03-09T12:36:13.145Z,100625.58
2019-03-09T12:38:42.313Z,100626.52
2019-03-09T12:41:11.497Z,100627.85
2019-03-09T12:43:40.675Z,100603.07
2019-03-09T12:46:09.872Z,100626.11
2019-03-09T12:48:40.374Z,100613.10
2019-03-09T12:51:09.543Z,100610.22
2019-03-09T12:53:38.741Z,100613.92
2019-03-09T12:56:07.914Z,100609.01
2019-03-09T12:58:55.065Z,100594.70
2019-03-09T13:01:24.246Z,100593.08
2019-03-09T13:03:53.424Z,100597.87
2019-03-09T13:06:22.569Z,100584.83
2019-03-09T13:08:51.761Z,100588.77
2019-03-09T13:11:20.995Z,100565.90
2019-03-09T13:14:08.336Z,100581.03
2019-03-09T13:16:37.543Z,100569.34
2019-03-09T13:19:06.764Z,100569.63
2019-03-09T13:21:35.952Z,100569.63
2019-03-09T13:24:05.149Z,100559.35
2019-03-09T13:26:34.345Z,100548.27
2019-03-09T13:29:03.463Z,100554.56
2019-03-09T13:31:32.644Z,100540.22
2019-03-09T13:34:01.833Z,100543.02
2019-03-09T13:36:48.741Z,100557.16
2019-03-09T13:39:17.934Z,100547.44
2019-03-09T13:41:47.121Z,100531.66
2019-03-09T13:44:16.331Z,100549.84
2019-03-09T13:46:45.516Z,100550.58
2019-03-09T13:49:14.708Z,100550.58
2019-03-09T13:51:43.897Z,100566.23
2019-03-09T13:54:13.111Z,100562.73
2019-03-09T13:56:42.308Z,100569.75
2019-03-09T13:59:11.509Z,100586.28
2019-03-09T14:01:40.699Z,100601.94
2019-03-09T14:04:09.892Z,100599.63
2019-03-09T14:06:39.093Z,100599.63
2019-03-09T14:09:09.973Z,100607.27
2019-03-09T14:11:39.167Z,100617.60
2019-03-09T14:14:08.359Z,100617.60
2019-03-09T14:16:37.532Z,100617.94
2019-03-09T14:19:06.803Z,100638.82
2019-03-09T14:21:35.990Z,100631.55
2019-03-09T14:24:05.402Z,100625.94
2019-03-09T14:26:34.588Z,100629.27
2019-03-09T14:29:05.411Z,100654.98
2019-03-09T14:31:34.645Z,100651.27
2019-03-09T14:34:03.814Z,100629.56
2019-03-09T14:36:33.680Z,100684.67
2019-03-09T14:39:04.244Z,100680.41
2019-03-09T14:41:33.425Z,100755.22
2019-03-09T14:44:02.616Z,100734.48
2019-03-09T14:46:31.729Z,100734.48
2019-03-09T14:49:00.917Z,100729.50
2019-03-09T14:51:30.123Z,100744.38
2019-03-09T14:53:59.303Z,100749.36
2019-03-09T14:56:28.623Z,100763.75
2019-03-09T14:58:57.817Z,100765.94
2019-03-09T15:01:27.134Z,100765.27
2019-03-09T15:03:56.389Z,100776.39
2019-03-09T15:06:43.726Z,100773.84
2019-03-09T15:09:30.794Z,100784.89
2019-03-09T15:11:59.998Z,100788.41
2019-03-09T15:14:29.188Z,100762.55
2019-03-09T15:16:58.360Z,100762.55
2019-03-09T15:19:27.558Z,100818.11
2019-03-09T15:21:56.748Z,100816.09
2019-03-09T15:24:25.937Z,100805.77
2019-03-09T15:26:55.149Z,100815.96
2019-03-09T15:29:24.323Z,100815.96
2019-03-09T15:31:53.522Z,100843.63
2019-03-09T15:34:22.723Z,100839.05
2019-03-09T15:36:51.902Z,100851.47
2019-03-09T15:39:21.369Z,100859.84
2019-03-09T15:41:50.563Z,100857.10
2019-03-09T15:44:19.832Z,100857.10
2019-03-09T15:46:49.032Z,100862.97
2019-03-09T15:49:36.418Z,100874.08
2019-03-09T15:52:05.608Z,100882.79
2019-03-09T15:54:34.833Z,100917.63
2019-03-09T15:57:04.078Z,100911.66
2019-03-09T15:59:33.273Z,100911.66
2019-03-09T16:02:05.506Z,100914.84
2019-03-09T16:04:34.702Z,100919.20
2019-03-09T16:07:06.305Z,100907.55
2019-03-09T16:09:35.503Z,100927.30
2019-03-09T16:12:04.695Z,100927.30
2019-03-09T16:14:33.878Z,100913.06
2019-03-09T16:17:05.992Z,100925.55
2019-03-09T16:19:35.183Z,100938.02
2019-03-09T16:22:04.494Z,100938.02
2019-03-09T16:24:33.671Z,100951.86
2019-03-09T16:27:02.841Z,100983.30
2019-03-09T16:29:32.022Z,100989.77
2019-03-09T16:32:01.215Z,100989.77
2019-03-09T16:34:30.414Z,100996.26
2019-03-09T16:37:01.683Z,100995.08
2019-03-09T16:39:30.863Z,100986.52
2019-03-09T16:42:00.061Z,100983.97
2019-03-09T16:44:29.261Z,100999.00
2019-03-09T16:46:58.478Z,100999.00
2019-03-09T16:49:29.433Z,100988.67
2019-03-09T16:51:58.621Z,101000.29
2019-03-09T16:54:27.901Z,101014.21
2019-03-09T16:56:57.087Z,101016.09
2019-03-09T16:59:26.327Z,101028.83
2019-03-09T17:01:55.497Z,101025.30
2019-03-09T17:04:24.701Z,101035.13
2019-03-09T17:06:53.874Z,101036.79
2019-03-09T17:09:23.079Z,101049.63
2019-03-09T17:11:52.255Z,101049.63
2019-03-09T17:14:21.434Z,101053.66
2019-03-09T17:16:50.618Z,101053.66
2019-03-09T17:19:19.830Z,101057.84
2019-03-09T17:21:49.016Z,101058.55
2019-03-09T17:24:18.188Z,101058.55
2019-03-09T17:26:47.381Z,101068.77
2019-03-09T17:29:16.562Z,101081.28
2019-03-09T17:31:45.754Z,101079.59
2019-03-09T17:34:14.923Z,101088.30
2019-03-09T17:36:44.107Z,101081.61
2019-03-09T17:39:13.295Z,101084.94
2019-03-09T17:41:42.486Z,101096.92
2019-03-09T17:44:11.680Z,101096.92
2019-03-09T17:46:40.856Z,101113.50
2019-03-09T17:49:10.059Z,101108.69
2019-03-09T17:51:39.298Z,101107.89
2019-03-09T17:54:08.419Z,101116.77
2019-03-09T17:56:37.656Z,101116.77
2019-03-09T17:59:06.812Z,101116.98
2019-03-09T18:01:36.008Z,101114.81
2019-03-09T18:04:05.183Z,101119.19
2019-03-09T18:06:34.369Z,101119.19
2019-03-09T18:09:04.755Z,101131.81
2019-03-09T18:11:33.956Z,101131.81
2019-03-09T18:14:06.929Z,101132.20
2019-03-09T18:16:33.991Z,101148.34
2019-03-09T18:19:03.188Z,101148.34
2019-03-09T18:21:32.343Z,101156.36
2019-03-09T18:24:01.569Z,101156.36
2019-03-09T18:26:30.715Z,101159.78
2019-03-09T18:29:00.033Z,101165.66
2019-03-09T18:31:29.201Z,101165.66
2019-03-09T18:33:58.367Z,101177.64
2019-03-09T18:36:27.736Z,101181.18
2019-03-09T18:38:56.913Z,101181.18
2019-03-09T18:41:26.101Z,101192.69
2019-03-09T18:43:55.287Z,101196.11
2019-03-09T18:46:24.514Z,101202.52
2019-03-09T18:48:53.711Z,101202.52
2019-03-09T18:51:22.879Z,101211.62
2019-03-09T18:53:52.159Z,101209.17
2019-03-09T18:56:21.319Z,101209.17
2019-03-09T18:58:50.500Z,101217.50
2019-03-09T19:01:19.705Z,101217.77
2019-03-09T19:03:48.916Z,101221.78
2019-03-09T19:06:18.097Z,101231.14
2019-03-09T19:08:47.271Z,101228.27
2019-03-09T19:11:16.463Z,101233.77
2019-03-09T19:13:45.671Z,101232.32
2019-03-09T19:16:14.835Z,101233.98
2019-03-09T19:18:44.091Z,101230.19
2019-03-09T19:21:13.751Z,101230.19
2019-03-09T19:23:42.946Z,101231.95
2019-03-09T19:26:12.152Z,101229.00
2019-03-09T19:28:41.389Z,101225.68
2019-03-09T19:31:10.561Z,101225.68
2019-03-09T19:33:39.762Z,101223.45
2019-03-09T19:36:08.975Z,101214.83
2019-03-09T19:38:38.181Z,101224.55
2019-03-09T19:41:07.379Z,101227.14
2019-03-09T19:43:36.554Z,101227.14
2019-03-09T19:46:05.752Z,101235.31
2019-03-09T19:48:34.930Z,101235.84
2019-03-09T19:51:04.204Z,101240.66
2019-03-09T19:53:33.415Z,101240.66
2019-03-09T19:56:02.596Z,101237.58
2019-03-09T19:58:31.783Z,101237.83
2019-03-09T20:01:00.990Z,101242.59
2019-03-09T20:03:30.162Z,101251.09
2019-03-09T20:05:59.438Z,101246.82
2019-03-09T20:08:28.625Z,101243.94
2019-03-09T20:10:57.895Z,101243.14
2019-03-09T20:13:27.098Z,101252.45
2019-03-09T20:15:56.330Z,101252.45
2019-03-09T20:18:25.526Z,101253.78
2019-03-09T20:21:12.809Z,101247.47
2019-03-09T20:23:42.046Z,101257.25
2019-03-09T20:26:11.329Z,101257.25
2019-03-09T20:28:40.525Z,101263.85
2019-03-09T20:31:09.729Z,101263.85
2019-03-09T20:33:38.937Z,101265.83
2019-03-09T20:36:08.115Z,101267.22
2019-03-09T20:38:37.303Z,101267.22
2019-03-09T20:41:06.488Z,101255.06
2019-03-09T20:43:35.661Z,101251.75
2019-03-09T20:46:04.918Z,101249.76
2019-03-09T20:48:34.045Z,101249.76
2019-03-09T20:51:03.248Z,101250.09
2019-03-09T20:53:32.428Z,101251.20
2019-03-09T20:56:01.604Z,101257.20
2019-03-09T20:58:30.803Z,101268.38
2019-03-09T21:01:00.143Z,101269.94
2019-03-09T21:03:29.327Z,101256.73
2019-03-09T21:05:58.502Z,101256.73
2019-03-09T21:08:27.687Z,101254.64
2019-03-09T21:11:03.904Z,101235.92
2019-03-09T21:13:27.777Z,101249.02
2019-03-09T21:15:56.952Z,101247.67
2019-03-09T21:18:26.149Z,101247.67
2019-03-09T21:20:55.310Z,101254.25
2019-03-09T21:23:24.502Z,101250.13
2019-03-09T21:25:53.728Z,101247.84
2019-03-09T21:28:22.918Z,101251.73
2019-03-09T21:30:52.083Z,101253.24
2019-03-09T21:33:21.290Z,101255.37
2019-03-09T21:35:50.500Z,101255.37
2019-03-09T21:38:19.680Z,101259.44
2019-03-09T21:40:48.870Z,101271.75
2019-03-09T21:43:18.070Z,101271.75
2019-03-09T21:45:47.244Z,101260.72
2019-03-09T21:48:16.463Z,101255.86
2019-03-09T21:50:45.647Z,101263.19
2019-03-09T21:53:15.673Z,101263.19
2019-03-09T21:55:44.853Z,101257.56
2019-03-09T21:58:14.071Z,101246.45
2019-03-09T22:00:43.249Z,101246.45
2019-03-09T22:03:12.425Z,101245.26
2019-03-09T22:05:41.621Z,101237.40
2019-03-09T22:08:10.797Z,101214.98
2019-03-09T22:10:40.055Z,101214.98
2019-03-09T22:13:09.167Z,101223.97
2019-03-09T22:15:38.347Z,101219.05
2019-03-09T22:18:07.530Z,101226.81
2019-03-09T22:20:36.719Z,101227.23
2019-03-09T22:23:05.981Z,101228.84
2019-03-09T22:25:35.197Z,101232.47
2019-03-09T22:28:04.555Z,101220.08
2019-03-09T22:30:33.726Z,101220.08
2019-03-09T22:33:04.632Z,101212.30
2019-03-09T22:35:33.773Z,101212.30
2019-03-09T22:38:03.002Z,101201.89
2019-03-09T22:40:32.174Z,101201.89
2019-03-09T22:43:01.350Z,101208.24
2019-03-09T22:45:30.542Z,101208.24
2019-03-09T22:47:59.792Z,101201.36
2019-03-09T22:50:28.971Z,101202.52
2019-03-09T22:52:58.159Z,101197.50
2019-03-09T22:55:27.348Z,101197.50
2019-03-09T22:57:56.543Z,101198.19
2019-03-09T23:00:27.168Z,101205.41
2019-03-09T23:02:56.553Z,101218.23
2019-03-09T23:05:25.831Z,101218.23
2019-03-09T23:07:55.011Z,101221.66
2019-03-09T23:10:28.297Z,101221.77
2019-03-09T23:12:57.492Z,101221.77
2019-03-09T23:15:26.694Z,101207.77
2019-03-09T23:18:03.843Z,101206.37
2019-03-09T23:20:33.075Z,101206.37
2019-03-09T23:23:02.254Z,101195.36
2019-03-09T23:25:31.500Z,101196.31
2019-03-09T23:28:00.707Z,101196.31
2019-03-09T23:30:29.906Z,101184.23
2019-03-09T23:32:59.018Z,101176.79
2019-03-09T23:35:28.195Z,101180.80
2019-03-09T23:37:57.371Z,101164.28
2019-03-09T23:40:26.639Z,101169.95
2019-03-09T23:42:55.799Z,101176.21
2019-03-09T23:45:26.685Z,101168.08
2019-03-09T23:47:56.215Z,101168.08
2019-03-09T23:50:25.554Z,101161.40
2019-03-09T23:52:54.821Z,101162.63
2019-03-09T23:55:24.327Z,101162.63
2019-03-09T23:57:53.583Z,101167.80
